Wargrave, United Kingdom
Current Conditions -  °F | °C
As of 9:50 PM on Monday 26 Jan 2015 (Local Time) from EGUB Reporting Station
Scattered Clouds Scattered Clouds  
Wind Chill: 39°   Ceiling: Unl
Heat Index: 39°   Visibility: 6mi
Dew Point: 34°   Wind: 1mph
Humidity: 81%   Direction: 260°W
Pressure: 30.36"   Gusts: NA
Location:  51.5°N, 0.87°W
Report Text: EGUB 262150Z 26001KT 9999 FEW030 SCT200 04/01 Q1028 BLU NOSIG
Loading
Personal Weather Stations






























Interactive Weather Map New forecast layout! Learn more

10-Day Weather Forecast

Advertisements
Track Severe Weather on mobile